HSPN

Port Sudan New International Airport

Port Sudan, Sudan
TAF HSPN 200500Z 2006/2112 02010G20KT 9999 FE030 SCT130
Issued Valid From Valid To
Jan-20 @ 05:00 UTC
(7 hours ago)
Jan-20 @ 06:00 UTC
(6 hours ago)
Jan-21 @ 12:00 UTC
(in 24 hours)
Jan-20 @ 06:00 to Jan-21 @ 12:00
TAF HSPN 200500Z 2006/2112 02010G20KT 9999 FE030 SCT130
Wind Visibility Clouds
20° at 10 knots
 Gusting to 20 knots
10,000+ meters
  • Scattered at 13,000' AGL
TAF HSPN 200500Z 2006/2112 02010G20KT 9999 FE030 SCT130
Issued Jan-20 @ 05:00 UTC
(7 hours ago)
Valid From Jan-20 @ 06:00 UTC
(6 hours ago)
Valid To Jan-21 @ 12:00 UTC
(in 24 hours)
Jan-20 @ 06:00 - Jan-21 @ 12:00
Wind Visibility
20° at 10 knots
 Gusting to 20 knots
10,000+ meters
Clouds
  • Scattered at 13,000' AGL